Time;durP1;ratioP1;P1;durP2;ratioP2;P2;SDS_P1;SDS_P2;PMS_P1;PMS_P2;Temp;Humidity;BMP_temperature;BMP_pressure;BME280_temperature;BME280_humidity;BME280_pressure;Samples;Min_cycle;Max_cycle;Signal;HPM_P1;HPM_P2
2022/04/08 00:01:43;;;;;;;3.67;0.45;;;;;;;6.27;73.90;99924.03;4998432;28;107118;-34
2022/04/08 00:04:08;;;;;;;4.25;0.63;;;;;;;6.26;73.89;99936.63;4998028;28;113858;-34
2022/04/08 00:06:34;;;;;;;4.28;0.28;;;;;;;6.27;73.94;99930.28;4997995;28;97381;-34
2022/04/08 00:08:59;;;;;;;4.57;0.30;;;;;;;6.26;73.65;99925.84;4998613;28;99202;-34
2022/04/08 00:11:25;;;;;;;0.52;0.25;;;;;;;6.22;73.96;99921.63;4999202;28;96739;-34
2022/04/08 00:13:52;;;;;;;7.80;0.38;;;;;;;6.24;74.30;99927.75;4997805;28;96766;-34
2022/04/08 00:16:18;;;;;;;0.80;0.45;;;;;;;6.24;74.08;99929.59;4997232;28;100896;-34
2022/04/08 00:18:45;;;;;;;1.95;0.55;;;;;;;6.30;74.03;99937.31;4998539;28;99305;-34
2022/04/08 00:21:10;;;;;;;4.13;0.70;;;;;;;6.30;73.87;99937.31;4998920;28;96471;-34
2022/04/08 00:23:36;;;;;;;1.52;0.15;;;;;;;6.27;73.50;99937.47;4999153;28;96741;-34
2022/04/08 00:26:01;;;;;;;0.25;0.20;;;;;;;6.27;73.09;99940.16;4997329;28;121428;-34
2022/04/08 00:28:26;;;;;;;3.13;0.55;;;;;;;6.21;72.98;99941.41;4997998;28;107761;-34
2022/04/08 00:30:51;;;;;;;2.92;0.55;;;;;;;6.17;73.31;99939.84;4998793;28;96514;-34
2022/04/08 00:33:17;;;;;;;0.43;0.32;;;;;;;6.16;72.86;99938.97;4998277;28;97745;-34
2022/04/08 00:35:42;;;;;;;0.00;0.00;;;;;;;6.10;73.13;99946.50;4997075;28;129174;-34
2022/04/08 00:38:07;;;;;;;0.47;0.25;;;;;;;6.12;73.20;99947.31;4997468;28;125826;-34
2022/04/08 00:40:34;;;;;;;3.25;0.55;;;;;;;6.10;73.03;99959.97;4998555;28;96637;-34
2022/04/08 00:43:18;;;;;;;0.00;0.00;;;;;;;6.11;73.73;99985.91;4998898;28;96706;-34
2022/04/08 00:45:44;;;;;;;0.03;0.03;;;;;;;6.16;74.20;99984.69;4997911;28;99777;-34
2022/04/08 00:48:09;;;;;;;2.75;0.43;;;;;;;6.05;74.49;99970.97;4996603;28;101044;-34
2022/04/08 00:50:41;;;;;;;1.38;0.25;;;;;;;6.05;75.19;99976.34;4997399;28;96483;-34
2022/04/08 00:53:08;;;;;;;0.00;0.00;;;;;;;5.99;74.44;99971.34;4998679;28;96586;-34
2022/04/08 00:55:35;;;;;;;1.25;0.38;;;;;;;5.98;74.56;99984.84;4996642;28;100911;-34
2022/04/08 00:58:03;;;;;;;4.97;0.63;;;;;;;5.93;74.45;99985.09;4996585;28;100991;-34
2022/04/08 01:00:32;;;;;;;2.63;0.70;;;;;;;5.99;74.78;99989.31;4996830;28;96676;-34
2022/04/08 01:02:58;;;;;;;0.00;0.00;;;;;;;5.96;74.61;99990.34;4997040;28;96736;-34
2022/04/08 01:05:24;;;;;;;0.47;0.25;;;;;;;5.97;75.47;99997.44;4997348;28;115855;-34
2022/04/08 01:07:50;;;;;;;0.88;0.22;;;;;;;5.94;74.67;99995.78;4997391;28;98051;-34
2022/04/08 01:10:15;;;;;;;0.77;0.28;;;;;;;5.98;74.88;99993.78;4998077;28;96566;-34
2022/04/08 01:12:40;;;;;;;0.55;0.35;;;;;;;5.98;75.35;99995.59;4998095;28;96943;-34
2022/04/08 01:15:07;;;;;;;0.55;0.35;;;;;;;5.98;74.86;100006.34;4996952;28;99106;-34
2022/04/08 01:17:32;;;;;;;1.08;0.30;;;;;;;5.93;75.07;99999.41;4996455;28;100499;-34
2022/04/08 01:19:57;;;;;;;0.10;0.08;;;;;;;5.85;75.50;99993.59;4998226;28;96482;-34
2022/04/08 01:22:24;;;;;;;2.78;0.50;;;;;;;5.88;74.97;99998.78;4997085;28;110203;-34
2022/04/08 01:25:03;;;;;;;0.05;0.05;;;;;;;5.92;75.41;99997.66;4996193;28;100877;-34
2022/04/08 01:27:28;;;;;;;1.38;0.20;;;;;;;5.94;75.26;100003.00;4997470;28;99452;-34
2022/04/08 01:29:55;;;;;;;0.30;0.17;;;;;;;5.83;75.45;99994.63;4997994;28;96637;-34
2022/04/08 01:32:20;;;;;;;0.90;0.22;;;;;;;5.85;75.19;99995.41;4996947;28;96785;-34
2022/04/08 01:34:48;;;;;;;0.40;0.20;;;;;;;5.92;75.60;99999.50;4997406;28;99217;-34
2022/04/08 01:37:14;;;;;;;0.35;0.35;;;;;;;5.87;75.53;99994.38;4997272;28;97793;-34
2022/04/08 01:39:40;;;;;;;0.63;0.30;;;;;;;5.86;75.42;99987.25;4997407;28;96527;-34
2022/04/08 01:42:05;;;;;;;1.25;0.28;;;;;;;5.92;75.72;99992.28;4997601;28;96845;-34
2022/04/08 01:44:31;;;;;;;0.08;0.05;;;;;;;5.94;75.70;99994.94;4997399;28;97426;-34
2022/04/08 01:46:56;;;;;;;0.80;0.32;;;;;;;5.90;75.66;99988.81;4997033;28;99558;-34
2022/04/08 01:49:21;;;;;;;2.08;0.65;;;;;;;6.00;75.97;100007.16;4997869;28;96626;-34
2022/04/08 01:51:47;;;;;;;7.35;0.35;;;;;;;6.03;75.96;100013.22;4997839;28;96465;-34
2022/04/08 01:54:12;;;;;;;0.55;0.15;;;;;;;6.03;76.24;100015.03;4995810;28;126529;-34
2022/04/08 01:56:37;;;;;;;5.72;0.63;;;;;;;5.94;75.67;100011.91;4996840;28;109381;-34
2022/04/08 01:59:02;;;;;;;0.55;0.43;;;;;;;5.92;75.66;100010.25;4996686;28;112038;-34
2022/04/08 02:01:28;;;;;;;0.68;0.35;;;;;;;5.87;75.21;100026.63;4997622;28;96717;-34
2022/04/08 02:03:53;;;;;;;1.13;0.28;;;;;;;5.82;75.81;100020.63;4996163;28;98826;-34
2022/04/08 02:06:18;;;;;;;0.68;0.40;;;;;;;5.87;75.16;100023.06;4996579;28;116919;-34
2022/04/08 02:08:44;;;;;;;7.15;0.80;;;;;;;5.84;75.00;100024.13;4996979;28;96661;-34
2022/04/08 02:11:09;;;;;;;1.27;0.08;;;;;;;5.76;75.18;100012.91;4994784;28;110520;-34
2022/04/08 02:13:34;;;;;;;1.50;0.32;;;;;;;5.75;74.96;100014.72;4996828;28;102195;-34
2022/04/08 02:15:59;;;;;;;1.00;0.35;;;;;;;5.68;74.01;100015.16;4996136;28;122769;-34
2022/04/08 02:18:25;;;;;;;1.92;0.30;;;;;;;5.70;73.98;100018.63;4997256;28;96576;-34
2022/04/08 02:20:51;;;;;;;0.10;0.05;;;;;;;5.69;73.45;100020.41;4996965;28;111449;-34
2022/04/08 02:23:16;;;;;;;0.28;0.20;;;;;;;5.65;73.86;100008.13;4995365;28;100858;-34
2022/04/08 02:25:42;;;;;;;0.35;0.22;;;;;;;5.68;73.15;100015.16;4996427;28;99031;-34
2022/04/08 02:28:08;;;;;;;0.52;0.52;;;;;;;5.62;73.50;100005.59;4996510;28;96628;-34
2022/04/08 02:30:33;;;;;;;0.35;0.20;;;;;;;5.61;73.54;100008.38;4997278;28;96726;-34
2022/04/08 02:33:01;;;;;;;0.20;0.20;;;;;;;5.60;73.35;99998.56;4996898;28;98020;-34
2022/04/08 02:35:29;;;;;;;1.30;0.47;;;;;;;5.66;73.56;100003.63;4995214;28;100904;-34
2022/04/08 02:37:54;;;;;;;1.23;0.63;;;;;;;5.59;73.74;99996.84;4995842;28;96705;-34
2022/04/08 02:40:19;;;;;;;1.42;0.30;;;;;;;5.60;73.50;100004.84;4996854;28;96850;-34
2022/04/08 02:42:44;;;;;;;4.45;1.20;;;;;;;5.54;72.82;99999.78;4995606;28;127305;-34
2022/04/08 02:45:10;;;;;;;0.68;0.52;;;;;;;5.53;73.38;100008.81;4996337;28;120002;-34
2022/04/08 02:47:43;;;;;;;0.70;0.40;;;;;;;5.57;72.92;100002.28;4996925;28;96521;-34
2022/04/08 02:50:08;;;;;;;0.57;0.35;;;;;;;5.56;73.25;100016.69;4995456;28;96873;-34
2022/04/08 02:52:34;;;;;;;0.52;0.20;;;;;;;5.54;72.96;100021.28;4995820;28;98847;-34
2022/04/08 02:54:59;;;;;;;0.57;0.50;;;;;;;5.49;73.19;100009.91;4996170;28;97805;-34
2022/04/08 02:57:31;;;;;;;0.25;0.10;;;;;;;5.49;73.28;100010.78;4995696;28;113478;-34
2022/04/08 02:59:59;;;;;;;4.75;0.88;;;;;;;5.54;73.19;100032.88;4996841;28;96922;-34
2022/04/08 03:02:24;;;;;;;0.40;0.30;;;;;;;5.49;73.56;100026.88;4994994;28;100751;-34
2022/04/08 03:04:51;;;;;;;0.68;0.30;;;;;;;5.49;72.89;100026.03;4996604;28;97257;-34
2022/04/08 03:07:17;;;;;;;0.30;0.25;;;;;;;5.46;73.52;100027.06;4994508;28;96900;-34
2022/04/08 03:09:42;;;;;;;0.20;0.20;;;;;;;5.48;73.78;100041.28;4997196;28;96747;-34
2022/04/08 03:12:08;;;;;;;1.83;0.40;;;;;;;5.50;73.58;100044.72;4995946;28;98257;-34
2022/04/08 03:14:33;;;;;;;2.83;0.52;;;;;;;5.50;73.33;100042.03;4995999;28;101368;-34
2022/04/08 03:16:59;;;;;;;0.00;0.00;;;;;;;5.53;74.02;100055.34;4998592;28;113181;-34
2022/04/08 03:19:24;;;;;;;6.45;0.98;;;;;;;5.45;73.83;100045.94;5000022;28;96652;-34
2022/04/08 03:21:49;;;;;;;0.40;0.20;;;;;;;5.44;73.70;100050.44;4998879;28;115798;-34
2022/04/08 03:24:15;;;;;;;0.45;0.35;;;;;;;5.48;73.54;100062.78;4998312;28;126866;-34
2022/04/08 03:26:40;;;;;;;1.63;0.70;;;;;;;5.44;73.88;100053.13;4998395;28;96518;-34
2022/04/08 03:29:06;;;;;;;5.75;0.47;;;;;;;5.37;73.78;100056.22;4999889;28;96767;-34
2022/04/08 03:31:31;;;;;;;5.47;0.85;;;;;;;5.43;74.14;100067.50;4999342;28;98031;-34
2022/04/08 03:33:56;;;;;;;4.00;0.38;;;;;;;5.32;74.04;100056.47;4999522;28;98511;-34
2022/04/08 03:36:22;;;;;;;0.25;0.15;;;;;;;5.33;74.10;100053.69;4998640;28;113012;-34
2022/04/08 03:38:47;;;;;;;0.70;0.22;;;;;;;5.36;73.92;100055.34;4999362;28;96826;-34
2022/04/08 03:41:13;;;;;;;0.65;0.38;;;;;;;5.36;73.69;100041.06;4999126;28;97388;-34
2022/04/08 03:43:41;;;;;;;0.65;0.65;;;;;;;5.43;73.58;100054.06;4999285;28;97823;-34
2022/04/08 03:46:07;;;;;;;0.30;0.10;;;;;;;5.42;73.79;100049.66;4997199;28;112073;-34
2022/04/08 03:48:32;;;;;;;0.35;0.15;;;;;;;5.37;73.73;100038.28;4999352;28;96729;-34
2022/04/08 03:50:57;;;;;;;0.47;0.25;;;;;;;5.38;73.45;100041.84;4998529;28;114365;-34
2022/04/08 03:53:23;;;;;;;0.85;0.32;;;;;;;5.37;73.77;100043.66;4998695;28;99110;-34
2022/04/08 03:55:48;;;;;;;4.15;0.15;;;;;;;5.42;73.49;100049.66;4999414;28;96600;-34
2022/04/08 03:58:13;;;;;;;0.22;0.20;;;;;;;5.41;73.29;100047.94;5000030;28;96736;-34
2022/04/08 04:00:39;;;;;;;0.60;0.40;;;;;;;5.39;73.41;100051.66;4998663;28;113965;-34
2022/04/08 04:03:05;;;;;;;2.30;0.47;;;;;;;5.33;73.44;100042.09;4997401;28;100576;-34
2022/04/08 04:05:31;;;;;;;0.05;0.05;;;;;;;5.28;74.03;100036.97;4998605;28;96550;-34
2022/04/08 04:07:59;;;;;;;1.55;0.25;;;;;;;5.30;73.74;100042.25;4996961;28;96908;-34
2022/04/08 04:10:25;;;;;;;4.47;0.80;;;;;;;5.29;73.63;100036.03;4998822;28;97987;-34
2022/04/08 04:12:50;;;;;;;0.75;0.32;;;;;;;5.24;73.52;100038.09;4997300;28;100744;-34
2022/04/08 04:15:16;;;;;;;0.20;0.17;;;;;;;5.24;73.88;100035.41;4998341;28;112000;-34
2022/04/08 04:17:41;;;;;;;0.95;0.28;;;;;;;5.24;73.22;100032.72;4998911;28;96838;-34
2022/04/08 04:20:07;;;;;;;0.88;0.35;;;;;;;5.28;73.50;100039.63;4997598;28;127138;-34
2022/04/08 04:22:32;;;;;;;0.40;0.35;;;;;;;5.27;73.72;100031.69;4998631;28;99264;-34
2022/04/08 04:24:57;;;;;;;1.40;0.30;;;;;;;5.30;73.69;100044.94;4998551;28;98565;-34
2022/04/08 04:27:23;;;;;;;0.20;0.13;;;;;;;5.29;73.91;100049.44;4998019;28;112396;-34
2022/04/08 04:29:48;;;;;;;0.35;0.13;;;;;;;5.19;73.36;100029.38;4998085;28;97470;-34
2022/04/08 04:32:13;;;;;;;1.35;0.28;;;;;;;5.23;73.54;100030.09;4997506;28;126433;-34
2022/04/08 04:34:38;;;;;;;0.38;0.30;;;;;;;5.32;73.66;100049.28;4998918;28;97671;-34
2022/04/08 04:37:04;;;;;;;6.53;0.32;;;;;;;5.26;73.29;100038.00;4998758;28;96845;-34
2022/04/08 04:39:30;;;;;;;0.30;0.10;;;;;;;5.23;73.69;100035.47;4996822;28;100820;-34
2022/04/08 04:41:55;;;;;;;0.13;0.10;;;;;;;5.20;73.15;100030.28;4998374;28;97739;-34
2022/04/08 04:44:21;;;;;;;0.28;0.13;;;;;;;5.25;73.34;100041.63;4998555;28;96582;-34
2022/04/08 04:46:46;;;;;;;0.20;0.15;;;;;;;5.29;73.59;100044.09;4996545;28;111152;-34
2022/04/08 04:49:11;;;;;;;0.10;0.10;;;;;;;5.26;73.17;100046.03;4998010;28;98834;-34
2022/04/08 04:51:37;;;;;;;0.20;0.20;;;;;;;5.23;73.56;100047.06;4997982;28;97804;-34
2022/04/08 04:54:02;;;;;;;0.35;0.20;;;;;;;5.18;73.71;100040.22;4997924;28;96602;-34
2022/04/08 04:56:28;;;;;;;0.85;0.40;;;;;;;5.19;73.62;100042.81;4998327;28;96793;-34
2022/04/08 04:58:54;;;;;;;0.20;0.15;;;;;;;5.20;74.00;100043.69;4996452;28;107361;-34
2022/04/08 05:01:19;;;;;;;1.08;0.35;;;;;;;5.20;74.16;100046.38;4996546;28;100805;-34
2022/04/08 05:03:44;;;;;;;0.82;0.30;;;;;;;5.23;74.04;100052.44;4997749;28;103091;-34
2022/04/08 05:06:10;;;;;;;2.83;0.50;;;;;;;5.16;74.16;100044.78;4998105;28;96927;-34
2022/04/08 05:08:35;;;;;;;0.10;0.10;;;;;;;5.20;74.18;100046.38;4997255;28;99299;-34
2022/04/08 05:11:00;;;;;;;0.20;0.20;;;;;;;5.22;74.24;100049.81;4998256;28;97215;-34
2022/04/08 05:13:26;;;;;;;0.73;0.35;;;;;;;5.12;74.44;100030.66;4997438;28;105357;-34
2022/04/08 05:15:51;;;;;;;0.80;0.55;;;;;;;5.18;74.45;100038.41;4998359;28;96766;-34
2022/04/08 05:18:17;;;;;;;10.02;0.93;;;;;;;5.19;74.16;100050.84;4997348;28;98007;-34
2022/04/08 05:20:42;;;;;;;0.00;0.00;;;;;;;5.07;74.45;100019.28;4997476;28;103553;-34
2022/04/08 05:23:07;;;;;;;1.67;0.55;;;;;;;5.22;74.22;100037.28;4997995;28;96517;-34
2022/04/08 05:25:33;;;;;;;2.58;0.40;;;;;;;5.24;74.23;100032.72;4998456;28;96893;-34
2022/04/08 05:27:58;;;;;;;0.17;0.17;;;;;;;5.15;74.13;100011.72;4997271;28;98791;-34
2022/04/08 05:30:23;;;;;;;0.80;0.35;;;;;;;5.19;74.36;100017.78;4997735;28;97593;-34
2022/04/08 05:32:49;;;;;;;0.25;0.10;;;;;;;5.25;74.22;100022.84;4997889;28;96510;-34
2022/04/08 05:35:16;;;;;;;0.20;0.10;;;;;;;5.27;74.00;100034.38;4998200;28;96780;-34
2022/04/08 05:37:44;;;;;;;0.52;0.20;;;;;;;5.20;73.81;100020.41;4996863;28;97962;-34
2022/04/08 05:40:16;;;;;;;1.88;0.65;;;;;;;5.30;74.01;100040.44;4995842;28;101210;-34
2022/04/08 05:42:46;;;;;;;0.57;0.20;;;;;;;5.25;73.85;100023.69;4997247;28;96706;-34
2022/04/08 05:45:13;;;;;;;0.22;0.00;;;;;;;5.29;73.84;100010.97;4997725;28;96598;-34
2022/04/08 05:47:39;;;;;;;0.80;0.20;;;;;;;5.31;74.40;100014.44;4995628;28;100969;-34
2022/04/08 05:50:06;;;;;;;0.00;0.00;;;;;;;5.32;73.88;100010.81;4997184;28;97762;-34
2022/04/08 05:52:31;;;;;;;0.10;0.10;;;;;;;5.37;73.71;100011.44;4996259;28;96698;-34
2022/04/08 05:54:57;;;;;;;0.45;0.25;;;;;;;5.35;73.89;100002.59;4997243;28;96858;-34
2022/04/08 05:57:23;;;;;;;0.10;0.10;;;;;;;5.47;73.89;100007.31;4995786;28;99331;-34
2022/04/08 05:59:49;;;;;;;0.00;0.00;;;;;;;5.51;73.70;100000.81;4997361;28;99203;-34
2022/04/08 06:02:14;;;;;;;1.63;0.08;;;;;;;5.52;73.76;100002.53;4963374;28;96594;-34
2022/04/08 06:04:40;;;;;;;0.55;0.30;;;;;;;5.54;73.91;100008.69;4997525;28;96815;-34
2022/04/08 06:07:05;;;;;;;1.95;0.30;;;;;;;5.58;74.06;100009.41;4995812;28;97736;-34
2022/04/08 06:09:32;;;;;;;0.10;0.10;;;;;;;5.55;73.84;100004.19;4996892;28;97290;-34
2022/04/08 06:11:58;;;;;;;2.47;0.35;;;;;;;5.70;74.10;100019.50;4996131;28;96537;-34
2022/04/08 06:14:23;;;;;;;0.35;0.30;;;;;;;5.71;73.30;100017.66;4997326;28;96463;-34
2022/04/08 06:16:48;;;;;;;0.65;0.43;;;;;;;5.73;73.76;100023.81;4996586;28;99346;-34
2022/04/08 06:19:14;;;;;;;2.30;0.47;;;;;;;5.74;74.00;100028.22;4996637;28;99633;-34
2022/04/08 06:21:39;;;;;;;0.10;0.10;;;;;;;5.69;74.28;100006.13;4996663;28;111995;-34
2022/04/08 06:24:05;;;;;;;1.42;0.40;;;;;;;5.74;74.21;100022.84;4997203;28;97879;-34
2022/04/08 06:26:32;;;;;;;0.65;0.52;;;;;;;5.78;74.31;100026.25;4996769;28;97434;-34
2022/04/08 06:28:58;;;;;;;0.60;0.47;;;;;;;5.67;74.21;100005.34;4996610;28;97774;-34
2022/04/08 06:31:28;;;;;;;0.08;0.08;;;;;;;5.77;73.88;100011.06;4995184;28;96587;-34
2022/04/08 06:33:54;;;;;;;0.10;0.08;;;;;;;5.82;73.77;100009.03;4995873;28;96719;-34
2022/04/08 06:36:19;;;;;;;1.35;0.28;;;;;;;5.73;73.92;99996.97;4996879;28;97386;-34
2022/04/08 06:38:44;;;;;;;0.68;0.20;;;;;;;5.77;73.57;99992.25;4996443;28;107225;-34
2022/04/08 06:41:10;;;;;;;0.40;0.30;;;;;;;5.82;73.55;100001.81;4996271;28;111809;-34
2022/04/08 06:43:35;;;;;;;0.73;0.30;;;;;;;5.93;72.93;100001.22;4997173;28;96707;-34
2022/04/08 06:46:01;;;;;;;1.35;0.60;;;;;;;5.97;72.96;100010.03;4996604;28;97375;-34
2022/04/08 06:48:26;;;;;;;0.30;0.20;;;;;;;5.98;72.99;100001.84;4995646;28;126450;-34
2022/04/08 06:50:51;;;;;;;0.20;0.20;;;;;;;6.12;72.91;100009.13;4998727;28;96459;-34
2022/04/08 06:53:17;;;;;;;1.05;0.28;;;;;;;6.21;72.58;100003.25;5000142;28;96787;-34
2022/04/08 06:55:42;;;;;;;0.80;0.40;;;;;;;6.40;72.10;100008.44;4998520;28;126837;-34
2022/04/08 06:58:07;;;;;;;2.20;0.20;;;;;;;6.51;71.94;100008.69;4999879;28;97807;-34
2022/04/08 07:00:33;;;;;;;0.63;0.45;;;;;;;6.66;72.04;99998.84;5000545;28;96476;-34
2022/04/08 07:02:58;;;;;;;0.75;0.40;;;;;;;6.82;72.26;99993.41;5000015;28;96785;-34
2022/04/08 07:05:26;;;;;;;0.65;0.30;;;;;;;6.95;71.64;99993.53;4999762;28;98037;-34
2022/04/08 07:08:00;;;;;;;3.70;0.50;;;;;;;7.12;71.42;100000.59;4997554;28;101293;-34
2022/04/08 07:10:26;;;;;;;0.30;0.20;;;;;;;7.17;71.41;99999.34;4999745;28;96863;-34
2022/04/08 07:12:51;;;;;;;0.52;0.25;;;;;;;7.31;71.67;100011.09;5000460;28;96544;-34
2022/04/08 07:15:17;;;;;;;0.30;0.20;;;;;;;7.33;71.13;99995.72;4998696;28;126841;-34
2022/04/08 07:17:42;;;;;;;0.70;0.40;;;;;;;7.39;70.76;99990.81;4999331;28;99360;-34
2022/04/08 07:20:08;;;;;;;0.10;0.10;;;;;;;7.50;70.78;100000.91;4998813;28;110780;-33
2022/04/08 07:22:34;;;;;;;0.57;0.35;;;;;;;7.55;71.02;99998.78;4999960;28;96799;-34
2022/04/08 07:24:59;;;;;;;1.70;0.73;;;;;;;7.50;71.02;99992.81;4999576;28;97938;-33
2022/04/08 07:27:24;;;;;;;5.07;0.60;;;;;;;7.53;70.82;99994.47;4999522;28;97977;-34
2022/04/08 07:29:50;;;;;;;3.30;0.30;;;;;;;7.44;71.20;99986.00;4998882;28;100995;-34
2022/04/08 07:32:20;;;;;;;3.75;1.15;;;;;;;7.36;70.71;99982.91;4998569;28;96765;-34
2022/04/08 07:34:47;;;;;;;0.55;0.15;;;;;;;7.42;70.84;99977.16;4997831;28;101447;-34
2022/04/08 07:37:13;;;;;;;0.20;0.20;;;;;;;7.43;70.68;99980.69;4998113;28;100890;-34
2022/04/08 07:39:41;;;;;;;0.68;0.40;;;;;;;7.37;70.34;99973.88;4999797;28;96486;-34
2022/04/08 07:42:07;;;;;;;1.17;0.35;;;;;;;7.39;70.34;99981.88;4999633;28;96749;-34
2022/04/08 07:44:32;;;;;;;0.40;0.40;;;;;;;7.27;69.70;99967.34;4998898;28;97405;-34
2022/04/08 07:46:57;;;;;;;1.40;0.40;;;;;;;7.29;69.92;99965.38;4997734;28;99360;-34
2022/04/08 07:49:23;;;;;;;0.20;0.10;;;;;;;7.28;69.15;99977.13;4998569;28;111936;-34
2022/04/08 07:51:48;;;;;;;0.22;0.05;;;;;;;7.34;69.43;99978.56;4999449;28;96877;-33
2022/04/08 07:54:13;;;;;;;2.72;0.80;;;;;;;7.35;69.79;99988.41;4998650;28;99072;-33
2022/04/08 07:56:39;;;;;;;0.45;0.35;;;;;;;7.41;69.80;99977.22;4998083;28;126654;-34
2022/04/08 07:59:04;;;;;;;2.03;0.45;;;;;;;7.49;69.29;99991.09;4998258;28;113046;-34
2022/04/08 08:01:29;;;;;;;2.03;0.30;;;;;;;7.51;69.42;99986.50;4999521;28;96807;-34
2022/04/08 08:03:54;;;;;;;0.13;0.10;;;;;;;7.59;69.16;99991.38;4999180;28;97316;-33
2022/04/08 08:06:20;;;;;;;0.10;0.10;;;;;;;7.58;69.18;99973.47;4998629;28;97991;-34
2022/04/08 08:08:46;;;;;;;2.55;0.38;;;;;;;7.68;68.92;99973.78;4998564;28;96586;-33
2022/04/08 08:11:13;;;;;;;0.05;0.05;;;;;;;7.71;68.80;99966.34;4997915;28;96792;-33
2022/04/08 08:13:38;;;;;;;0.50;0.28;;;;;;;7.75;68.14;99965.19;4998317;28;99258;-34
2022/04/08 08:16:05;;;;;;;6.57;0.73;;;;;;;7.84;68.48;99979.91;4998483;28;98638;-33
2022/04/08 08:18:30;;;;;;;0.30;0.30;;;;;;;7.78;67.70;99964.13;4981308;28;96687;-34
2022/04/08 08:20:55;;;;;;;0.40;0.10;;;;;;;7.87;68.25;99956.31;4997264;28;101203;-33
2022/04/08 08:23:21;;;;;;;0.95;0.47;;;;;;;8.03;67.67;99956.19;4997051;28;101169;-34
2022/04/08 08:25:46;;;;;;;0.75;0.20;;;;;;;8.12;66.64;99960.09;4998249;28;121362;-34
2022/04/08 08:28:11;;;;;;;0.95;0.28;;;;;;;8.17;67.42;99959.78;4998617;28;96581;-34
2022/04/08 08:30:38;;;;;;;0.25;0.17;;;;;;;8.24;66.92;99945.78;4999036;28;96758;-33
2022/04/08 08:33:06;;;;;;;1.83;0.40;;;;;;;8.40;67.41;99948.38;4996493;28;101007;-33
2022/04/08 08:35:32;;;;;;;1.17;0.38;;;;;;;8.54;66.68;99947.44;4996813;28;100862;-34
2022/04/08 08:37:58;;;;;;;4.03;0.22;;;;;;;8.57;66.78;99949.06;4998658;28;96603;-34
2022/04/08 08:40:24;;;;;;;0.85;0.32;;;;;;;8.69;67.00;99948.22;4998720;28;96785;-34
2022/04/08 08:42:50;;;;;;;0.63;0.28;;;;;;;8.81;66.19;99941.13;4998058;28;99285;-34
2022/04/08 08:45:17;;;;;;;1.92;0.55;;;;;;;8.95;66.52;99943.75;4998090;28;99284;-34
2022/04/08 08:47:46;;;;;;;0.32;0.32;;;;;;;9.13;65.86;99942.47;4997284;28;96614;-34
2022/04/08 08:50:12;;;;;;;0.63;0.45;;;;;;;9.01;65.18;99934.34;4997516;28;96746;-34
2022/04/08 08:52:37;;;;;;;0.38;0.20;;;;;;;9.02;66.00;99938.78;4996634;28;100842;-34
2022/04/08 08:55:06;;;;;;;2.25;0.35;;;;;;;8.97;65.53;99940.94;4997785;28;99315;-34
2022/04/08 08:57:32;;;;;;;2.28;1.00;;;;;;;8.85;66.00;99930.00;4979674;28;96663;-34
2022/04/08 09:00:06;;;;;;;2.10;0.50;;;;;;;8.88;65.55;99931.63;4998659;28;96701;-34
2022/04/08 09:02:31;;;;;;;6.78;0.50;;;;;;;8.85;65.44;99934.56;4996620;28;101075;-34
2022/04/08 09:04:57;;;;;;;2.85;0.20;;;;;;;8.90;66.43;99930.56;4996518;28;101197;-33
2022/04/08 09:07:28;;;;;;;0.35;0.22;;;;;;;8.83;66.41;99917.59;4997389;28;96799;-34
2022/04/08 09:09:56;;;;;;;2.78;0.93;;;;;;;8.91;65.97;99924.19;4996713;28;96838;-34
2022/04/08 09:12:26;;;;;;;6.43;0.63;;;;;;;8.89;64.63;99919.84;4979039;28;100772;-34
2022/04/08 09:14:59;;;;;;;0.45;0.30;;;;;;;8.97;65.10;99941.81;4996732;28;100746;-34
2022/04/08 09:17:28;;;;;;;1.05;0.38;;;;;;;8.93;64.61;99948.38;4996760;28;96594;-34
2022/04/08 09:19:58;;;;;;;0.80;0.50;;;;;;;8.75;64.86;99918.13;4996792;28;96776;-34
2022/04/08 09:22:28;;;;;;;8.27;0.60;;;;;;;8.80;64.33;99940.28;4995555;28;100734;-34
2022/04/08 09:24:54;;;;;;;1.90;0.38;;;;;;;8.73;65.22;99938.97;4996122;28;100863;-34
2022/04/08 09:27:21;;;;;;;1.13;0.60;;;;;;;8.65;65.18;99930.50;4997733;28;96506;-34
2022/04/08 09:29:46;;;;;;;1.88;0.70;;;;;;;8.53;65.77;99917.84;4996426;28;96801;-34
2022/04/08 09:32:12;;;;;;;0.32;0.10;;;;;;;8.57;65.25;99924.78;4997529;28;97714;-34
2022/04/08 09:34:40;;;;;;;0.40;0.30;;;;;;;8.58;64.92;99926.50;4995993;28;100489;-34
2022/04/08 09:37:15;;;;;;;1.35;0.35;;;;;;;8.64;64.92;99929.66;4996594;28;96733;-34
2022/04/08 09:39:54;;;;;;;0.95;0.63;;;;;;;8.66;63.87;99925.00;4996797;28;96533;-34
2022/04/08 09:42:20;;;;;;;3.30;0.73;;;;;;;8.62;63.98;99922.63;4995849;28;101426;-34
2022/04/08 09:44:46;;;;;;;1.85;0.30;;;;;;;8.66;64.96;99921.47;4995915;28;101124;-34
2022/04/08 09:47:11;;;;;;;0.00;0.00;;;;;;;8.68;64.72;99933.88;4997390;28;96414;-33
2022/04/08 09:49:36;;;;;;;3.90;0.25;;;;;;;8.69;64.64;99929.34;4996627;28;112451;-34
2022/04/08 09:52:05;;;;;;;0.68;0.45;;;;;;;8.76;64.00;99930.66;4997231;28;99286;-34
2022/04/08 09:54:33;;;;;;;0.28;0.20;;;;;;;8.78;64.57;99922.44;4978846;28;101861;-34
2022/04/08 09:57:00;;;;;;;1.83;0.20;;;;;;;8.81;64.18;99925.78;4996267;28;96714;-34
2022/04/08 09:59:28;;;;;;;0.00;0.00;;;;;;;8.81;62.11;99925.78;4997778;28;96777;-34
2022/04/08 10:01:56;;;;;;;0.55;0.22;;;;;;;8.82;64.45;99927.53;4996966;28;99149;-34
2022/04/08 10:04:22;;;;;;;0.10;0.10;;;;;;;8.84;63.94;99916.59;4995977;28;100725;-34
2022/04/08 10:06:48;;;;;;;0.10;0.10;;;;;;;8.92;64.58;99915.13;4995561;28;96890;-34
2022/04/08 10:09:15;;;;;;;2.00;0.68;;;;;;;9.14;63.72;99927.97;4997294;28;96781;-34
2022/04/08 10:12:07;;;;;;;1.35;0.68;;;;;;;9.33;63.55;99934.78;4995150;28;101253;-34
2022/04/08 10:14:48;;;;;;;0.85;0.38;;;;;;;9.41;62.34;99934.22;4996570;28;99040;-34
2022/04/08 10:17:14;;;;;;;0.38;0.17;;;;;;;9.54;63.63;99925.13;4997684;28;96614;-34
2022/04/08 10:19:40;;;;;;;0.85;0.25;;;;;;;9.61;63.18;99909.34;4997814;28;96735;-34
2022/04/08 10:22:16;;;;;;;0.00;0.00;;;;;;;9.67;62.67;99919.69;4996771;28;99004;-34
2022/04/08 10:24:54;;;;;;;0.75;0.17;;;;;;;9.70;62.20;99919.47;4999986;28;97800;-34
2022/04/08 10:27:30;;;;;;;0.95;0.17;;;;;;;9.62;61.47;99921.88;4999643;28;96706;-34
2022/04/08 10:29:56;;;;;;;0.55;0.30;;;;;;;9.43;60.20;99911.50;4999812;28;96741;-34
2022/04/08 10:32:21;;;;;;;1.42;0.28;;;;;;;9.44;60.81;99918.66;5000442;28;97478;-34
2022/04/08 10:34:47;;;;;;;2.10;0.28;;;;;;;9.48;61.86;99927.41;5000395;28;97282;-34
2022/04/08 10:37:21;;;;;;;0.95;0.25;;;;;;;9.51;62.11;99940.69;4998756;28;96507;-34
2022/04/08 10:39:56;;;;;;;0.43;0.03;;;;;;;9.53;62.85;99936.03;5000657;28;96632;-34
2022/04/08 10:42:22;;;;;;;3.70;0.20;;;;;;;9.46;61.98;99918.53;4998759;28;100817;-34
2022/04/08 10:44:48;;;;;;;1.27;0.30;;;;;;;9.51;62.88;99940.69;4998697;28;101359;-34
2022/04/08 10:47:21;;;;;;;3.50;0.28;;;;;;;9.51;62.40;99943.41;4999250;28;96554;-34
2022/04/08 10:49:50;;;;;;;1.17;0.30;;;;;;;9.46;62.33;99953.69;5000151;28;96799;-34
2022/04/08 10:52:25;;;;;;;0.20;0.20;;;;;;;9.32;62.51;99942.03;4999727;28;98992;-34
2022/04/08 10:55:02;;;;;;;1.48;0.40;;;;;;;9.22;62.12;99919.31;4998676;28;100332;-34
2022/04/08 10:57:39;;;;;;;4.68;0.47;;;;;;;9.22;63.24;99913.06;4999205;28;96505;-34
2022/04/08 11:00:10;;;;;;;7.20;0.52;;;;;;;9.24;63.51;99925.47;4998965;28;96676;-34
2022/04/08 11:02:37;;;;;;;0.88;0.20;;;;;;;9.21;61.89;99925.72;4999138;28;99284;-34
2022/04/08 11:05:13;;;;;;;0.50;0.17;;;;;;;9.17;62.36;99926.88;4998330;28;100786;-34
2022/04/08 11:07:43;;;;;;;0.65;0.25;;;;;;;9.14;62.29;99936.06;4999951;28;96946;-34
2022/04/08 11:10:17;;;;;;;0.20;0.20;;;;;;;9.12;62.19;99927.22;4998793;28;96749;-34
2022/04/08 11:12:47;;;;;;;4.45;0.40;;;;;;;9.13;62.16;99920.84;4999573;28;99123;-34
2022/04/08 11:15:15;;;;;;;0.22;0.13;;;;;;;9.14;63.05;99916.31;4998132;28;101428;-34
2022/04/08 11:17:41;;;;;;;4.05;0.52;;;;;;;9.13;61.96;99904.63;4999894;28;96604;-34
2022/04/08 11:20:09;;;;;;;0.00;0.00;;;;;;;9.15;61.47;99901.81;4999115;28;96825;-34
2022/04/08 11:22:42;;;;;;;1.05;0.30;;;;;;;9.20;60.78;99894.28;4998012;28;102000;-34
2022/04/08 11:25:09;;;;;;;0.20;0.10;;;;;;;9.27;60.53;99891.97;4998229;28;100287;-34
2022/04/08 11:27:35;;;;;;;4.47;0.50;;;;;;;9.41;61.89;99896.38;4997968;28;96535;-34
2022/04/08 11:30:01;;;;;;;0.65;0.43;;;;;;;9.41;59.95;99893.69;4999950;28;96695;-34
2022/04/08 11:32:33;;;;;;;0.88;0.45;;;;;;;9.40;60.81;99892.81;4997914;28;101226;-34